createdAt,value
2019-05-11T00:04:00.884Z,97.80
2019-05-11T00:10:04.955Z,98.20
2019-05-11T00:16:07.522Z,98.30
2019-05-11T00:22:09.003Z,98.00
2019-05-11T00:28:10.709Z,97.80
2019-05-11T00:34:12.270Z,97.90
2019-05-11T00:40:15.103Z,97.80
2019-05-11T00:46:16.957Z,98.00
2019-05-11T00:52:18.559Z,98.20
2019-05-11T00:58:20.135Z,98.00
2019-05-11T01:04:21.689Z,97.90
2019-05-11T01:10:33.795Z,97.60
2019-05-11T01:16:26.580Z,97.60
2019-05-11T01:22:28.012Z,97.50
2019-05-11T01:28:29.520Z,97.40
2019-05-11T01:34:31.017Z,97.60
2019-05-11T01:40:32.526Z,97.40
2019-05-11T01:46:36.676Z,97.40
2019-05-11T01:52:38.239Z,97.50
2019-05-11T01:58:39.690Z,97.60
2019-05-11T02:04:41.114Z,97.60
2019-05-11T02:10:42.653Z,97.60
2019-05-11T02:16:44.306Z,97.70
2019-05-11T02:22:45.940Z,97.60
2019-05-11T02:28:47.560Z,97.70
2019-05-11T02:34:49.093Z,97.70
2019-05-11T02:40:50.618Z,97.80
2019-05-11T02:46:52.288Z,97.70
2019-05-11T02:52:54.005Z,97.70
2019-05-11T02:58:58.631Z,97.80
2019-05-11T03:05:00.154Z,97.90
2019-05-11T03:11:01.771Z,97.90
2019-05-11T03:17:17.480Z,97.90
2019-05-11T03:23:19.020Z,98.00
2019-05-11T03:29:20.445Z,97.90
2019-05-11T03:35:21.944Z,97.90
2019-05-11T03:41:23.418Z,98.10
2019-05-11T03:47:24.967Z,98.20
2019-05-11T03:53:26.400Z,98.00
2019-05-11T03:59:27.932Z,98.20
2019-05-11T04:05:29.620Z,98.20
2019-05-11T04:11:31.114Z,98.10
2019-05-11T04:17:32.644Z,98.00
2019-05-11T04:23:34.140Z,98.00
2019-05-11T04:29:35.644Z,97.70
2019-05-11T04:35:38.992Z,97.50
2019-05-11T04:41:40.506Z,97.10
2019-05-11T04:47:42.067Z,96.80
2019-05-11T04:53:43.636Z,96.90
2019-05-11T04:59:45.127Z,96.90
2019-05-11T05:05:47.571Z,97.00
2019-05-11T05:11:50.031Z,97.10
2019-05-11T05:17:51.695Z,96.60
2019-05-11T05:23:53.172Z,96.60
2019-05-11T05:29:54.610Z,96.30
2019-05-11T05:35:56.138Z,95.90
2019-05-11T05:41:57.806Z,95.70
2019-05-11T05:47:59.272Z,95.70
2019-05-11T05:54:00.767Z,95.30
2019-05-11T06:00:02.569Z,95.50
2019-05-11T06:06:04.032Z,95.30
2019-05-11T06:12:05.511Z,94.70
2019-05-11T06:18:07.108Z,94.20
2019-05-11T06:24:09.062Z,93.90
2019-05-11T06:30:10.961Z,93.60
2019-05-11T06:36:12.576Z,93.20
2019-05-11T06:42:14.244Z,92.70
2019-05-11T06:48:15.760Z,92.20
2019-05-11T06:54:17.262Z,91.90
2019-05-11T07:00:18.897Z,90.90
2019-05-11T07:06:20.310Z,91.00
2019-05-11T07:12:21.932Z,90.90
2019-05-11T07:18:23.567Z,90.30
2019-05-11T07:24:25.416Z,91.70
2019-05-11T07:30:27.106Z,91.40
2019-05-11T07:36:31.283Z,91.00
2019-05-11T07:42:32.899Z,91.30
2019-05-11T07:48:34.903Z,92.10
2019-05-11T07:54:38.514Z,92.70
2019-05-11T08:00:40.151Z,92.40
2019-05-11T08:06:41.637Z,92.20
2019-05-11T08:12:43.446Z,92.90
2019-05-11T08:18:44.963Z,91.90
2019-05-11T08:24:49.637Z,92.00
2019-05-11T08:30:51.080Z,91.60
2019-05-11T08:36:52.719Z,91.70
2019-05-11T08:42:54.415Z,90.90
2019-05-11T08:48:55.934Z,90.50
2019-05-11T08:54:57.817Z,90.90
2019-05-11T09:00:59.487Z,90.40
2019-05-11T09:07:02.863Z,90.00
2019-05-11T09:13:04.632Z,88.40
2019-05-11T09:19:08.583Z,90.00
2019-05-11T09:25:09.713Z,89.00
2019-05-11T09:31:12.372Z,89.20
2019-05-11T09:37:13.825Z,89.90
2019-05-11T09:43:17.710Z,88.00
2019-05-11T09:49:21.021Z,88.70
2019-05-11T09:55:22.503Z,87.30
2019-05-11T10:01:24.018Z,87.10
2019-05-11T10:07:25.497Z,89.90
2019-05-11T10:13:28.106Z,89.20
2019-05-11T10:19:31.255Z,90.20
2019-05-11T10:25:33.881Z,89.40
2019-05-11T10:31:38.625Z,89.50
2019-05-11T10:37:41.928Z,87.30
2019-05-11T10:43:43.531Z,86.70
2019-05-11T10:49:45.217Z,86.50
2019-05-11T10:55:50.686Z,87.40
2019-05-11T11:01:52.164Z,87.60
2019-05-11T11:07:53.787Z,87.80
2019-05-11T11:13:55.607Z,90.60
2019-05-11T11:19:58.101Z,90.10
2019-05-11T11:25:59.849Z,90.20
2019-05-11T11:32:02.491Z,88.80
2019-05-11T11:38:04.029Z,88.30
2019-05-11T11:44:07.659Z,88.10
2019-05-11T11:50:09.341Z,90.00
2019-05-11T11:56:11.952Z,89.90
2019-05-11T12:02:13.481Z,90.00
2019-05-11T12:08:15.287Z,89.30
2019-05-11T12:14:18.734Z,88.70
2019-05-11T12:20:20.674Z,88.90
2019-05-11T12:26:22.388Z,90.30
2019-05-11T12:32:27.683Z,89.50
2019-05-11T12:38:30.576Z,90.40
2019-05-11T12:44:32.064Z,90.10
2019-05-11T12:50:34.000Z,90.40
2019-05-11T12:56:35.539Z,89.30
2019-05-11T13:02:38.797Z,90.70
2019-05-11T13:08:40.448Z,91.40
2019-05-11T13:14:41.922Z,91.40
2019-05-11T13:20:45.500Z,91.80
2019-05-11T13:26:48.512Z,90.90
2019-05-11T13:32:50.425Z,90.70
2019-05-11T13:38:51.877Z,91.40
2019-05-11T13:44:53.409Z,90.50
2019-05-11T13:50:55.045Z,89.70
2019-05-11T13:56:57.703Z,90.80
2019-05-11T14:03:01.100Z,90.10
2019-05-11T14:09:58.907Z,90.40
2019-05-11T14:16:00.636Z,90.30
2019-05-11T14:22:02.182Z,90.50
2019-05-11T14:28:04.748Z,90.90
2019-05-11T14:34:08.151Z,91.10
2019-05-11T14:40:10.017Z,90.50
2019-05-11T14:46:11.675Z,90.60
2019-05-11T14:52:19.004Z,92.50
2019-05-11T14:58:20.519Z,91.00
2019-05-11T15:04:22.020Z,91.20
2019-05-11T15:10:23.962Z,91.20
2019-05-11T15:16:27.728Z,91.70
2019-05-11T15:22:28.860Z,92.10
2019-05-11T15:28:30.388Z,91.70
2019-05-11T15:34:31.957Z,92.00
2019-05-11T15:40:33.792Z,92.00
2019-05-11T15:46:35.324Z,91.70
2019-05-11T15:52:39.846Z,92.00
2019-05-11T15:58:58.219Z,91.90
2019-05-11T16:05:02.483Z,91.40
2019-05-11T16:11:04.108Z,91.20
2019-05-11T16:17:05.580Z,90.80
2019-05-11T16:23:07.192Z,90.50
2019-05-11T16:29:11.480Z,89.70
2019-05-11T16:35:12.176Z,90.50
2019-05-11T16:41:17.860Z,90.60
2019-05-11T16:47:20.109Z,90.60
2019-05-11T16:53:21.548Z,90.80
2019-05-11T16:59:23.535Z,91.40
2019-05-11T17:05:26.857Z,91.60
2019-05-11T17:11:28.971Z,92.10
2019-05-11T17:17:30.516Z,92.60
2019-05-11T17:23:32.051Z,92.80
2019-05-11T17:29:33.580Z,93.00
2019-05-11T17:35:35.021Z,93.00
2019-05-11T17:41:38.764Z,92.50
2019-05-11T17:47:39.753Z,92.90
2019-05-11T17:53:41.261Z,92.60
2019-05-11T17:59:42.766Z,92.60
2019-05-11T18:05:44.486Z,92.60
2019-05-11T18:11:48.097Z,92.90
2019-05-11T18:17:49.375Z,92.90
2019-05-11T18:23:50.944Z,93.20
2019-05-11T18:29:52.508Z,93.10
2019-05-11T18:35:53.985Z,92.50
2019-05-11T18:41:58.673Z,92.90
2019-05-11T18:48:00.598Z,93.10
2019-05-11T18:54:02.319Z,92.90
2019-05-11T19:00:08.400Z,93.00
2019-05-11T19:06:10.024Z,92.90
2019-05-11T19:12:11.576Z,92.90
2019-05-11T19:18:13.229Z,93.20
2019-05-11T19:24:14.749Z,93.40
2019-05-11T19:30:18.425Z,93.90
2019-05-11T19:36:19.727Z,94.30
2019-05-11T19:42:21.197Z,94.50
2019-05-11T19:48:22.935Z,95.30
2019-05-11T19:54:25.201Z,95.10
2019-05-11T20:00:26.803Z,95.10
2019-05-11T20:06:29.955Z,95.30
2019-05-11T20:12:31.653Z,95.60
2019-05-11T20:18:33.253Z,95.50
2019-05-11T20:24:34.764Z,95.50
2019-05-11T20:30:38.666Z,95.60
2019-05-11T20:36:40.136Z,95.70
2019-05-11T20:42:42.664Z,95.80
2019-05-11T20:48:44.358Z,95.90
2019-05-11T20:54:47.728Z,96.10
2019-05-11T21:00:49.348Z,96.20
2019-05-11T21:06:50.819Z,96.50
2019-05-11T21:12:52.447Z,96.20
2019-05-11T21:18:54.353Z,96.50
2019-05-11T21:24:58.179Z,96.40
2019-05-11T21:30:59.707Z,96.20
2019-05-11T21:37:01.171Z,94.90
2019-05-11T21:43:02.638Z,94.50
2019-05-11T21:49:07.275Z,94.80
2019-05-11T21:55:09.698Z,94.40
2019-05-11T22:01:11.518Z,93.70
2019-05-11T22:07:13.221Z,93.90
2019-05-11T22:13:14.832Z,93.90
2019-05-11T22:19:17.756Z,93.90
2019-05-11T22:25:19.333Z,94.10
2019-05-11T22:31:20.903Z,94.20
2019-05-11T22:37:22.571Z,94.50
2019-05-11T22:43:24.187Z,94.60
2019-05-11T22:49:25.685Z,94.90
2019-05-11T22:55:31.793Z,94.70
2019-05-11T23:01:33.254Z,95.40
2019-05-11T23:07:35.090Z,95.10
2019-05-11T23:13:38.217Z,95.20
2019-05-11T23:19:39.763Z,95.50
2019-05-11T23:25:41.227Z,95.80
2019-05-11T23:31:42.779Z,95.90
2019-05-11T23:37:44.354Z,96.10
2019-05-11T23:43:48.546Z,96.10
2019-05-11T23:49:50.022Z,96.20
2019-05-11T23:55:51.544Z,96.30
